Smiths Park, South Dakota
Current Conditions -  °F | °C
As of 4:15 AM on Wednesday 26 Nov 2014 (Local Time) from KMDS Reporting Station
Unknown Precip Unknown Precip  
Wind Chill: 17°   Ceiling: 400
Heat Index: 28°   Visibility: 2mi
Dew Point: 28°   Wind: 15mph
Humidity: 100%   Direction: 30°NNE
Pressure: 29.9"   Gusts: NA
Location:  43.9868°N, 96.9457°W
Report Text: KMDS 261015Z AUTO 03013KT 2SM UP BKN004 OVC012 M02/M02 A2990 RMK AO2 P0007
Loading
Personal Weather Stations






























Interactive Weather Map New forecast layout! Learn more

10-Day Weather Forecast

Advertisements
Track Severe Weather on mobile